logo tempoitalia

Diretta Meteo Le Luc, Franciamartedì 17 maggio ore 06:00

Mappa
Sereno 12 °C Sereno 24 Ore: T.min 12 T.max 29
Ponente Nord Km/h 3.7 Punto di rugiada: 9 °C Umidità: 81% Visibilità: 10 Km
Il sole sorge alle: 06:06 Il sole tramonta alle: 20:55
17 Maggio 2022 06:00 tempo osservato: Sereno Sereno 12 81 1019 vento: Nord N 3.7
17 Maggio 2022 05:30 tempo osservato: Sereno Sereno 13 81 1019 vento: Nord N 0
17 Maggio 2022 05:00 tempo osservato: Sereno Sereno 13 81 1019 vento: Nord N 0
17 Maggio 2022 04:30 tempo osservato: Sereno Sereno 13 81 1019 vento: Nord N 1.8
17 Maggio 2022 04:00 tempo osservato: Sereno Sereno 13 81 1019 vento: Nord N 3.7
17 Maggio 2022 03:30 tempo osservato: Sereno Sereno 15 72 1019 vento: Nord N 3.7
17 Maggio 2022 03:00 tempo osservato: Sereno Sereno 15 72 1019 vento: Nord N 3.7
17 Maggio 2022 02:30 tempo osservato: Sereno Sereno 16 67 1019 vento: Nord N 3.7
17 Maggio 2022 02:00 tempo osservato: Sereno Sereno 18 59 1020 vento: Nord N 5.5
17 Maggio 2022 01:30 tempo osservato: Sereno Sereno 19 55 1019 vento: Nord O/SO 14.8
17 Maggio 2022 01:00 tempo osservato: Sereno Sereno 19 55 1019 vento: Nord SO 14.8
17 Maggio 2022 00:30 tempo osservato: Sereno Sereno 20 56 1019 vento: Nord O/SO 11.1
17 Maggio 2022 00:00 tempo osservato: Sereno Sereno 19 63 1020 vento: Nord O 7.4
16 Maggio 2022 23:30 tempo osservato: Sereno Sereno 20 64 1019 vento: Nord O/SO 11.1
16 Maggio 2022 23:00 tempo osservato: Sereno Sereno 20 59 1019 vento: Nord O 7.4
16 Maggio 2022 22:30 tempo osservato: Sereno Sereno 21 56 1019 vento: Nord O/SO 14.8
16 Maggio 2022 22:00 tempo osservato: Sereno Sereno 21 52 1019 vento: Nord O 11.1
16 Maggio 2022 21:30 tempo osservato: Sereno Sereno 22 49 1019 vento: Nord O 14.8
16 Maggio 2022 21:00 tempo osservato: Sereno Sereno 23 40 1019 vento: Nord O/SO 14.8
16 Maggio 2022 20:30 tempo osservato: Sereno Sereno 24 38 1018 vento: Nord O/SO 16.7
16 Maggio 2022 20:00 tempo osservato: Sereno Sereno 25 33 1018 vento: Nord O/SO 16.7
16 Maggio 2022 19:30 tempo osservato: Sereno Sereno 26 29 1018 vento: Nord O/SO 18.5
16 Maggio 2022 19:00 tempo osservato: Sereno Sereno 26 25 1018 vento: Nord O/SO 18.5
16 Maggio 2022 18:30 tempo osservato: Sereno Sereno 27 26 1018 vento: Nord O/SO 20.3
16 Maggio 2022 18:00 tempo osservato: Sereno Sereno 27 26 1018 vento: Nord SO 20.3
16 Maggio 2022 17:30 tempo osservato: Sereno Sereno 27 26 1018 vento: Nord SO 18.5
16 Maggio 2022 17:00 tempo osservato: Sereno Sereno 27 28 1018 vento: Nord SO 20.3
16 Maggio 2022 16:30 tempo osservato: Sereno Sereno 28 26 1019 vento: Nord O/SO 22.2
16 Maggio 2022 16:00 tempo osservato: Sereno Sereno 28 26 1019 vento: Nord SO 18.5
16 Maggio 2022 15:30 tempo osservato: Sereno Sereno 28 30 1019 vento: Nord SO 18.5
16 Maggio 2022 15:00 tempo osservato: Sereno Sereno 29 30 1019 vento: Nord SO 16.7
16 Maggio 2022 14:30 tempo osservato: Sereno Sereno 28 32 1019 vento: Nord SO 16.7
16 Maggio 2022 13:30 tempo osservato: Sereno Sereno 28 28 1020 vento: Nord S/SO 13
16 Maggio 2022 13:00 tempo osservato: Sereno Sereno 28 30 1020 vento: Nord SO 16.7
16 Maggio 2022 12:30 tempo osservato: Sereno Sereno 27 30 1020 vento: Nord N 13
16 Maggio 2022 12:00 tempo osservato: Sereno Sereno 27 36 1020 vento: Nord SO 7.4
16 Maggio 2022 11:30 tempo osservato: Sereno Sereno 26 39 1020 vento: Nord N 5.5
16 Maggio 2022 11:00 tempo osservato: Sereno Sereno 24 53 1020 vento: Nord N 3.7
16 Maggio 2022 10:30 tempo osservato: Sereno Sereno 23 60 1020 vento: Nord N 0
16 Maggio 2022 10:00 tempo osservato: Sereno Sereno 21 68 1020 vento: Nord N 1.8
16 Maggio 2022 09:30 tempo osservato: Sereno Sereno 20 77 1020 vento: Nord N 0
16 Maggio 2022 09:00 tempo osservato: Sereno Sereno 18 82 1020 vento: Nord N 3.7
16 Maggio 2022 08:30 tempo osservato: Sereno Sereno 17 82 1020 vento: Nord N 1.8
16 Maggio 2022 08:00 tempo osservato: Sereno Sereno 15 93 1020 vento: Nord N 3.7
16 Maggio 2022 07:30 tempo osservato: Sereno Sereno 14 93 1020 vento: Nord N 0
16 Maggio 2022 07:00 tempo osservato: Sereno Sereno 13 93 1020 vento: Nord N 0